sensor_id;sensor_type;location;lat;lon;timestamp;temperature;humidity
64143;DHT22;50437;51.970;5.904;2022-09-16T00:00:40;12.60;95.60
64143;DHT22;50437;51.970;5.904;2022-09-16T00:03:06;12.60;95.60
64143;DHT22;50437;51.970;5.904;2022-09-16T00:05:32;12.70;95.80
64143;DHT22;50437;51.970;5.904;2022-09-16T00:07:58;12.70;95.80
64143;DHT22;50437;51.970;5.904;2022-09-16T00:10:24;12.70;95.70
64143;DHT22;50437;51.970;5.904;2022-09-16T00:12:50;12.80;95.70
64143;DHT22;50437;51.970;5.904;2022-09-16T00:15:16;12.80;95.60
64143;DHT22;50437;51.970;5.904;2022-09-16T00:17:42;12.90;95.40
64143;DHT22;50437;51.970;5.904;2022-09-16T00:20:08;12.90;95.30
64143;DHT22;50437;51.970;5.904;2022-09-16T00:22:35;12.90;95.30
64143;DHT22;50437;51.970;5.904;2022-09-16T00:25:02;13.00;95.60
64143;DHT22;50437;51.970;5.904;2022-09-16T00:27:28;13.00;95.90
64143;DHT22;50437;51.970;5.904;2022-09-16T00:29:54;13.10;96.00
64143;DHT22;50437;51.970;5.904;2022-09-16T00:32:20;13.10;96.40
64143;DHT22;50437;51.970;5.904;2022-09-16T00:34:46;13.10;95.80
64143;DHT22;50437;51.970;5.904;2022-09-16T00:37:12;13.10;95.90
64143;DHT22;50437;51.970;5.904;2022-09-16T00:39:38;13.00;96.00
64143;DHT22;50437;51.970;5.904;2022-09-16T00:42:04;13.10;95.50
64143;DHT22;50437;51.970;5.904;2022-09-16T00:47:15;13.10;95.90
64143;DHT22;50437;51.970;5.904;2022-09-16T00:49:43;13.00;95.90
64143;DHT22;50437;51.970;5.904;2022-09-16T00:52:13;13.00;95.70
64143;DHT22;50437;51.970;5.904;2022-09-16T00:54:38;13.00;96.20
64143;DHT22;50437;51.970;5.904;2022-09-16T00:57:06;13.10;95.90
64143;DHT22;50437;51.970;5.904;2022-09-16T00:59:36;13.00;95.90
64143;DHT22;50437;51.970;5.904;2022-09-16T01:02:10;13.00;95.70
64143;DHT22;50437;51.970;5.904;2022-09-16T01:04:43;12.90;96.00
64143;DHT22;50437;51.970;5.904;2022-09-16T01:07:11;13.00;96.20
64143;DHT22;50437;51.970;5.904;2022-09-16T01:09:38;13.00;96.90
64143;DHT22;50437;51.970;5.904;2022-09-16T01:12:04;13.10;97.00
64143;DHT22;50437;51.970;5.904;2022-09-16T01:14:33;13.10;97.00
64143;DHT22;50437;51.970;5.904;2022-09-16T01:20:09;13.10;97.10
64143;DHT22;50437;51.970;5.904;2022-09-16T01:35:41;13.00;96.60
64143;DHT22;50437;51.970;5.904;2022-09-16T01:41:04;13.00;96.30
64143;DHT22;50437;51.970;5.904;2022-09-16T01:59:05;12.90;96.40
64143;DHT22;50437;51.970;5.904;2022-09-16T02:01:34;12.90;96.80
64143;DHT22;50437;51.970;5.904;2022-09-16T02:04:04;12.90;96.90
64143;DHT22;50437;51.970;5.904;2022-09-16T02:06:31;12.90;96.80
64143;DHT22;50437;51.970;5.904;2022-09-16T02:09:00;12.90;96.80
64143;DHT22;50437;51.970;5.904;2022-09-16T02:11:29;12.90;97.10
64143;DHT22;50437;51.970;5.904;2022-09-16T02:16:34;12.80;97.10
64143;DHT22;50437;51.970;5.904;2022-09-16T02:19:01;12.80;97.00
64143;DHT22;50437;51.970;5.904;2022-09-16T02:21:32;12.80;97.00
64143;DHT22;50437;51.970;5.904;2022-09-16T02:24:00;12.80;97.20
64143;DHT22;50437;51.970;5.904;2022-09-16T02:26:32;12.80;97.00
64143;DHT22;50437;51.970;5.904;2022-09-16T02:28:59;12.80;97.00
64143;DHT22;50437;51.970;5.904;2022-09-16T02:31:28;12.80;96.60
64143;DHT22;50437;51.970;5.904;2022-09-16T02:33:57;12.70;96.40
64143;DHT22;50437;51.970;5.904;2022-09-16T02:36:25;12.70;96.70
64143;DHT22;50437;51.970;5.904;2022-09-16T02:38:55;12.80;96.90
64143;DHT22;50437;51.970;5.904;2022-09-16T02:41:22;12.80;97.00
64143;DHT22;50437;51.970;5.904;2022-09-16T02:43:48;12.70;96.70
64143;DHT22;50437;51.970;5.904;2022-09-16T02:49:01;12.60;96.90
64143;DHT22;50437;51.970;5.904;2022-09-16T02:54:09;12.50;97.00
64143;DHT22;50437;51.970;5.904;2022-09-16T02:56:37;12.40;97.00
64143;DHT22;50437;51.970;5.904;2022-09-16T02:59:04;12.40;97.40
64143;DHT22;50437;51.970;5.904;2022-09-16T03:01:30;12.40;97.80
64143;DHT22;50437;51.970;5.904;2022-09-16T03:03:58;12.40;97.70
64143;DHT22;50437;51.970;5.904;2022-09-16T03:06:24;12.50;97.60
64143;DHT22;50437;51.970;5.904;2022-09-16T03:08:51;12.50;97.50
64143;DHT22;50437;51.970;5.904;2022-09-16T03:11:31;12.50;97.30
64143;DHT22;50437;51.970;5.904;2022-09-16T03:14:06;12.50;97.20
64143;DHT22;50437;51.970;5.904;2022-09-16T03:16:46;12.50;97.30
64143;DHT22;50437;51.970;5.904;2022-09-16T03:19:20;12.50;97.30
64143;DHT22;50437;51.970;5.904;2022-09-16T03:22:02;12.50;97.30
64143;DHT22;50437;51.970;5.904;2022-09-16T03:27:17;12.50;97.60
64143;DHT22;50437;51.970;5.904;2022-09-16T03:35:06;12.50;97.40
64143;DHT22;50437;51.970;5.904;2022-09-16T03:37:33;12.50;97.20
64143;DHT22;50437;51.970;5.904;2022-09-16T03:40:04;12.50;97.40
64143;DHT22;50437;51.970;5.904;2022-09-16T03:42:30;12.60;97.40
64143;DHT22;50437;51.970;5.904;2022-09-16T03:44:56;12.50;97.40
64143;DHT22;50437;51.970;5.904;2022-09-16T03:47:22;12.50;97.30
64143;DHT22;50437;51.970;5.904;2022-09-16T03:49:49;12.50;97.10
64143;DHT22;50437;51.970;5.904;2022-09-16T03:52:16;12.40;97.10
64143;DHT22;50437;51.970;5.904;2022-09-16T03:54:43;12.50;96.80
64143;DHT22;50437;51.970;5.904;2022-09-16T03:57:09;12.40;96.50
64143;DHT22;50437;51.970;5.904;2022-09-16T03:59:35;12.40;96.50
64143;DHT22;50437;51.970;5.904;2022-09-16T04:02:01;12.40;96.70
64143;DHT22;50437;51.970;5.904;2022-09-16T04:04:27;12.40;97.00
64143;DHT22;50437;51.970;5.904;2022-09-16T04:06:53;12.40;97.30
64143;DHT22;50437;51.970;5.904;2022-09-16T04:09:19;12.40;97.70
64143;DHT22;50437;51.970;5.904;2022-09-16T04:11:45;12.40;97.70
64143;DHT22;50437;51.970;5.904;2022-09-16T04:14:11;12.50;97.80
64143;DHT22;50437;51.970;5.904;2022-09-16T04:16:37;12.50;98.00
64143;DHT22;50437;51.970;5.904;2022-09-16T04:19:03;12.50;97.70
64143;DHT22;50437;51.970;5.904;2022-09-16T04:21:29;12.40;97.70
64143;DHT22;50437;51.970;5.904;2022-09-16T04:23:55;12.40;97.60
64143;DHT22;50437;51.970;5.904;2022-09-16T04:26:21;12.40;97.60
64143;DHT22;50437;51.970;5.904;2022-09-16T04:28:47;12.40;98.00
64143;DHT22;50437;51.970;5.904;2022-09-16T04:31:14;12.40;98.20
64143;DHT22;50437;51.970;5.904;2022-09-16T04:33:40;12.50;97.90
64143;DHT22;50437;51.970;5.904;2022-09-16T04:36:08;12.50;97.60
64143;DHT22;50437;51.970;5.904;2022-09-16T04:38:36;12.50;97.50
64143;DHT22;50437;51.970;5.904;2022-09-16T04:41:03;12.40;97.50
64143;DHT22;50437;51.970;5.904;2022-09-16T04:43:29;12.40;97.50
64143;DHT22;50437;51.970;5.904;2022-09-16T04:45:55;12.40;97.80
64143;DHT22;50437;51.970;5.904;2022-09-16T04:48:21;12.40;97.90
64143;DHT22;50437;51.970;5.904;2022-09-16T04:50:48;12.30;97.30
64143;DHT22;50437;51.970;5.904;2022-09-16T04:53:13;12.40;97.20
64143;DHT22;50437;51.970;5.904;2022-09-16T04:55:39;12.40;96.60
64143;DHT22;50437;51.970;5.904;2022-09-16T04:58:05;12.30;96.80
64143;DHT22;50437;51.970;5.904;2022-09-16T05:00:31;12.20;96.90
64143;DHT22;50437;51.970;5.904;2022-09-16T05:02:57;12.30;96.50
64143;DHT22;50437;51.970;5.904;2022-09-16T05:05:23;12.30;96.40
64143;DHT22;50437;51.970;5.904;2022-09-16T05:07:49;12.30;96.70
64143;DHT22;50437;51.970;5.904;2022-09-16T05:10:15;12.20;96.80
64143;DHT22;50437;51.970;5.904;2022-09-16T05:12:41;12.20;97.20
64143;DHT22;50437;51.970;5.904;2022-09-16T05:15:07;12.20;96.90
64143;DHT22;50437;51.970;5.904;2022-09-16T05:17:34;12.20;97.20
64143;DHT22;50437;51.970;5.904;2022-09-16T05:20:00;12.20;97.50
64143;DHT22;50437;51.970;5.904;2022-09-16T05:22:26;12.10;97.50
64143;DHT22;50437;51.970;5.904;2022-09-16T05:24:52;12.20;97.40
64143;DHT22;50437;51.970;5.904;2022-09-16T05:27:17;12.10;97.80
64143;DHT22;50437;51.970;5.904;2022-09-16T05:29:43;12.10;97.90
64143;DHT22;50437;51.970;5.904;2022-09-16T05:32:09;12.00;98.10
64143;DHT22;50437;51.970;5.904;2022-09-16T05:34:35;12.00;98.40
64143;DHT22;50437;51.970;5.904;2022-09-16T05:37:02;12.00;98.30
64143;DHT22;50437;51.970;5.904;2022-09-16T05:39:28;12.00;98.10
64143;DHT22;50437;51.970;5.904;2022-09-16T05:41:55;12.00;97.90
64143;DHT22;50437;51.970;5.904;2022-09-16T05:44:21;12.00;97.60
64143;DHT22;50437;51.970;5.904;2022-09-16T05:46:47;11.90;97.40
64143;DHT22;50437;51.970;5.904;2022-09-16T05:49:13;11.90;97.40
64143;DHT22;50437;51.970;5.904;2022-09-16T05:51:45;11.80;97.20
64143;DHT22;50437;51.970;5.904;2022-09-16T05:54:11;11.80;97.10
64143;DHT22;50437;51.970;5.904;2022-09-16T05:56:37;11.80;96.90
64143;DHT22;50437;51.970;5.904;2022-09-16T05:59:03;11.80;97.00
64143;DHT22;50437;51.970;5.904;2022-09-16T06:01:30;11.80;96.70
64143;DHT22;50437;51.970;5.904;2022-09-16T06:03:59;11.80;96.80
64143;DHT22;50437;51.970;5.904;2022-09-16T06:06:26;11.80;96.80
64143;DHT22;50437;51.970;5.904;2022-09-16T06:08:53;11.90;96.70
64143;DHT22;50437;51.970;5.904;2022-09-16T06:11:20;11.90;96.90
64143;DHT22;50437;51.970;5.904;2022-09-16T06:13:46;11.90;96.90
64143;DHT22;50437;51.970;5.904;2022-09-16T06:16:12;12.00;96.90
64143;DHT22;50437;51.970;5.904;2022-09-16T06:18:39;12.10;96.60
64143;DHT22;50437;51.970;5.904;2022-09-16T06:21:07;12.20;96.20
64143;DHT22;50437;51.970;5.904;2022-09-16T06:23:33;12.20;95.90
64143;DHT22;50437;51.970;5.904;2022-09-16T06:26:00;12.30;96.00
64143;DHT22;50437;51.970;5.904;2022-09-16T06:28:26;12.30;95.90
64143;DHT22;50437;51.970;5.904;2022-09-16T06:31:05;12.40;96.10
64143;DHT22;50437;51.970;5.904;2022-09-16T06:33:32;12.40;96.20
64143;DHT22;50437;51.970;5.904;2022-09-16T06:36:06;12.40;95.90
64143;DHT22;50437;51.970;5.904;2022-09-16T06:38:32;12.40;96.10
64143;DHT22;50437;51.970;5.904;2022-09-16T06:40:59;12.50;96.00
64143;DHT22;50437;51.970;5.904;2022-09-16T06:43:25;12.40;96.30
64143;DHT22;50437;51.970;5.904;2022-09-16T06:45:55;12.40;96.50
64143;DHT22;50437;51.970;5.904;2022-09-16T06:48:20;12.50;96.10
64143;DHT22;50437;51.970;5.904;2022-09-16T06:50:46;12.50;96.20
64143;DHT22;50437;51.970;5.904;2022-09-16T06:53:12;12.50;96.30
64143;DHT22;50437;51.970;5.904;2022-09-16T06:55:38;12.50;96.10
64143;DHT22;50437;51.970;5.904;2022-09-16T06:58:04;12.60;96.20
64143;DHT22;50437;51.970;5.904;2022-09-16T07:00:30;12.60;96.30
64143;DHT22;50437;51.970;5.904;2022-09-16T07:02:56;12.60;96.30
64143;DHT22;50437;51.970;5.904;2022-09-16T07:05:22;12.60;96.30
64143;DHT22;50437;51.970;5.904;2022-09-16T07:07:49;12.70;96.40
64143;DHT22;50437;51.970;5.904;2022-09-16T07:10:17;12.70;96.20
64143;DHT22;50437;51.970;5.904;2022-09-16T07:12:43;12.80;95.80
64143;DHT22;50437;51.970;5.904;2022-09-16T07:15:09;12.90;95.50
64143;DHT22;50437;51.970;5.904;2022-09-16T07:17:35;13.00;95.60
64143;DHT22;50437;51.970;5.904;2022-09-16T07:20:01;13.10;95.60
64143;DHT22;50437;51.970;5.904;2022-09-16T07:22:29;13.20;94.80
64143;DHT22;50437;51.970;5.904;2022-09-16T07:25:00;13.30;94.20
64143;DHT22;50437;51.970;5.904;2022-09-16T07:27:26;13.50;93.80
64143;DHT22;50437;51.970;5.904;2022-09-16T07:29:52;13.60;93.20
64143;DHT22;50437;51.970;5.904;2022-09-16T07:32:21;13.80;92.40
64143;DHT22;50437;51.970;5.904;2022-09-16T07:34:47;13.70;92.60
64143;DHT22;50437;51.970;5.904;2022-09-16T07:37:13;13.60;92.90
64143;DHT22;50437;51.970;5.904;2022-09-16T07:39:39;13.60;93.10
64143;DHT22;50437;51.970;5.904;2022-09-16T07:42:05;13.50;92.40
64143;DHT22;50437;51.970;5.904;2022-09-16T07:44:31;13.60;91.80
64143;DHT22;50437;51.970;5.904;2022-09-16T07:46:57;13.50;91.80
64143;DHT22;50437;51.970;5.904;2022-09-16T07:49:23;13.30;92.30
64143;DHT22;50437;51.970;5.904;2022-09-16T07:51:49;13.30;93.00
64143;DHT22;50437;51.970;5.904;2022-09-16T07:54:16;13.70;92.80
64143;DHT22;50437;51.970;5.904;2022-09-16T07:56:42;14.00;91.20
64143;DHT22;50437;51.970;5.904;2022-09-16T07:59:10;13.90;91.40
64143;DHT22;50437;51.970;5.904;2022-09-16T08:01:36;13.80;90.70
64143;DHT22;50437;51.970;5.904;2022-09-16T08:04:02;13.80;91.00
64143;DHT22;50437;51.970;5.904;2022-09-16T08:06:29;14.00;90.40
64143;DHT22;50437;51.970;5.904;2022-09-16T08:08:56;14.20;88.10
64143;DHT22;50437;51.970;5.904;2022-09-16T08:11:28;14.50;83.70
64143;DHT22;50437;51.970;5.904;2022-09-16T08:13:54;14.80;83.80
64143;DHT22;50437;51.970;5.904;2022-09-16T08:16:20;14.60;82.20
64143;DHT22;50437;51.970;5.904;2022-09-16T08:18:49;14.50;82.50
64143;DHT22;50437;51.970;5.904;2022-09-16T08:21:19;14.30;83.30
64143;DHT22;50437;51.970;5.904;2022-09-16T08:23:45;14.20;83.20
64143;DHT22;50437;51.970;5.904;2022-09-16T08:26:11;14.10;85.20
64143;DHT22;50437;51.970;5.904;2022-09-16T08:28:39;14.20;87.50
64143;DHT22;50437;51.970;5.904;2022-09-16T08:31:06;14.20;88.80
64143;DHT22;50437;51.970;5.904;2022-09-16T08:33:32;14.20;88.30
64143;DHT22;50437;51.970;5.904;2022-09-16T08:35:59;14.30;87.40
64143;DHT22;50437;51.970;5.904;2022-09-16T08:38:25;14.30;88.00
64143;DHT22;50437;51.970;5.904;2022-09-16T08:40:53;14.40;86.50
64143;DHT22;50437;51.970;5.904;2022-09-16T08:43:22;14.50;85.70
64143;DHT22;50437;51.970;5.904;2022-09-16T08:45:54;14.80;87.30
64143;DHT22;50437;51.970;5.904;2022-09-16T08:51:23;17.40;75.00
64143;DHT22;50437;51.970;5.904;2022-09-16T08:53:56;18.90;65.40
64143;DHT22;50437;51.970;5.904;2022-09-16T08:56:24;19.90;63.10
64143;DHT22;50437;51.970;5.904;2022-09-16T08:58:55;20.30;59.60
64143;DHT22;50437;51.970;5.904;2022-09-16T09:03:51;20.70;56.20
64143;DHT22;50437;51.970;5.904;2022-09-16T09:06:23;19.60;56.90
64143;DHT22;50437;51.970;5.904;2022-09-16T09:17:01;20.00;60.00
64143;DHT22;50437;51.970;5.904;2022-09-16T09:19:16;21.20;47.20
64143;DHT22;50437;51.970;5.904;2022-09-16T09:21:55;20.60;48.50
64143;DHT22;50437;51.970;5.904;2022-09-16T09:24:41;20.70;47.60
64143;DHT22;50437;51.970;5.904;2022-09-16T09:27:21;21.40;44.70
64143;DHT22;50437;51.970;5.904;2022-09-16T09:29:54;21.60;43.30
64143;DHT22;50437;51.970;5.904;2022-09-16T09:35:17;21.90;45.20
64143;DHT22;50437;51.970;5.904;2022-09-16T09:38:01;22.60;42.10
64143;DHT22;50437;51.970;5.904;2022-09-16T09:40:33;23.20;42.00
64143;DHT22;50437;51.970;5.904;2022-09-16T09:43:16;23.90;42.40
64143;DHT22;50437;51.970;5.904;2022-09-16T09:48:21;23.90;36.60
64143;DHT22;50437;51.970;5.904;2022-09-16T09:50:49;24.00;36.00
64143;DHT22;50437;51.970;5.904;2022-09-16T09:53:21;23.80;40.20
64143;DHT22;50437;51.970;5.904;2022-09-16T09:55:51;24.30;35.30
64143;DHT22;50437;51.970;5.904;2022-09-16T09:58:29;24.50;37.10
64143;DHT22;50437;51.970;5.904;2022-09-16T10:01:00;24.70;33.80
64143;DHT22;50437;51.970;5.904;2022-09-16T10:03:26;24.40;33.80
64143;DHT22;50437;51.970;5.904;2022-09-16T10:05:53;24.70;35.50
64143;DHT22;50437;51.970;5.904;2022-09-16T10:10:55;25.20;32.20
64143;DHT22;50437;51.970;5.904;2022-09-16T10:13:22;24.30;33.10
64143;DHT22;50437;51.970;5.904;2022-09-16T10:15:49;24.10;36.90
64143;DHT22;50437;51.970;5.904;2022-09-16T10:18:23;23.80;37.30
64143;DHT22;50437;51.970;5.904;2022-09-16T10:21:03;24.20;35.80
64143;DHT22;50437;51.970;5.904;2022-09-16T10:23:29;23.60;36.50
64143;DHT22;50437;51.970;5.904;2022-09-16T10:28:41;23.60;37.60
64143;DHT22;50437;51.970;5.904;2022-09-16T10:31:17;24.30;34.10
64143;DHT22;50437;51.970;5.904;2022-09-16T10:33:43;24.50;34.20
64143;DHT22;50437;51.970;5.904;2022-09-16T10:36:16;24.50;32.90
64143;DHT22;50437;51.970;5.904;2022-09-16T10:38:43;23.80;32.60
64143;DHT22;50437;51.970;5.904;2022-09-16T10:41:17;22.60;34.80
64143;DHT22;50437;51.970;5.904;2022-09-16T10:43:51;22.10;38.90
64143;DHT22;50437;51.970;5.904;2022-09-16T10:46:18;22.40;36.90
64143;DHT22;50437;51.970;5.904;2022-09-16T10:48:45;22.40;36.40
64143;DHT22;50437;51.970;5.904;2022-09-16T10:51:22;22.50;36.50
64143;DHT22;50437;51.970;5.904;2022-09-16T10:53:56;22.90;36.00
64143;DHT22;50437;51.970;5.904;2022-09-16T10:56:23;21.90;35.90
64143;DHT22;50437;51.970;5.904;2022-09-16T11:01:35;20.80;38.20
64143;DHT22;50437;51.970;5.904;2022-09-16T11:09:33;22.80;38.60
64143;DHT22;50437;51.970;5.904;2022-09-16T11:17:29;20.30;42.50
64143;DHT22;50437;51.970;5.904;2022-09-16T11:22:55;19.00;48.80
64143;DHT22;50437;51.970;5.904;2022-09-16T11:31:33;19.60;45.20
64143;DHT22;50437;51.970;5.904;2022-09-16T11:38:56;20.50;41.80
64143;DHT22;50437;51.970;5.904;2022-09-16T11:41:26;20.80;40.10
64143;DHT22;50437;51.970;5.904;2022-09-16T11:44:01;21.20;40.40
64143;DHT22;50437;51.970;5.904;2022-09-16T11:49:04;20.80;40.70
64143;DHT22;50437;51.970;5.904;2022-09-16T11:54:22;20.50;37.50
64143;DHT22;50437;51.970;5.904;2022-09-16T11:56:57;20.20;37.90
64143;DHT22;50437;51.970;5.904;2022-09-16T11:59:32;19.10;41.40
64143;DHT22;50437;51.970;5.904;2022-09-16T12:02:01;18.40;42.00
64143;DHT22;50437;51.970;5.904;2022-09-16T12:04:34;18.50;42.00
64143;DHT22;50437;51.970;5.904;2022-09-16T12:07:06;18.40;42.10
64143;DHT22;50437;51.970;5.904;2022-09-16T12:09:41;18.30;40.90
64143;DHT22;50437;51.970;5.904;2022-09-16T12:12:13;18.50;43.40
64143;DHT22;50437;51.970;5.904;2022-09-16T12:14:44;18.80;43.30
64143;DHT22;50437;51.970;5.904;2022-09-16T12:17:32;19.00;41.80
64143;DHT22;50437;51.970;5.904;2022-09-16T12:20:15;19.40;41.30
64143;DHT22;50437;51.970;5.904;2022-09-16T12:22:58;19.50;40.00
64143;DHT22;50437;51.970;5.904;2022-09-16T12:25:40;19.70;40.60
64143;DHT22;50437;51.970;5.904;2022-09-16T12:28:15;19.80;39.40
64143;DHT22;50437;51.970;5.904;2022-09-16T12:30:43;19.60;39.30
64143;DHT22;50437;51.970;5.904;2022-09-16T12:33:13;19.40;42.00
64143;DHT22;50437;51.970;5.904;2022-09-16T12:38:28;19.00;43.40
64143;DHT22;50437;51.970;5.904;2022-09-16T12:43:31;19.10;45.40
64143;DHT22;50437;51.970;5.904;2022-09-16T12:46:06;18.90;47.90
64143;DHT22;50437;51.970;5.904;2022-09-16T12:48:54;18.80;46.70
64143;DHT22;50437;51.970;5.904;2022-09-16T12:56:49;18.00;51.40
64143;DHT22;50437;51.970;5.904;2022-09-16T12:59:26;17.90;52.60
64143;DHT22;50437;51.970;5.904;2022-09-16T13:01:57;18.00;52.70
64143;DHT22;50437;51.970;5.904;2022-09-16T13:06:52;18.30;51.70
64143;DHT22;50437;51.970;5.904;2022-09-16T13:09:27;18.30;51.10
64143;DHT22;50437;51.970;5.904;2022-09-16T13:12:19;18.30;50.20
64143;DHT22;50437;51.970;5.904;2022-09-16T13:14:45;18.00;50.40
64143;DHT22;50437;51.970;5.904;2022-09-16T13:17:12;18.10;51.00
64143;DHT22;50437;51.970;5.904;2022-09-16T13:19:50;18.10;50.50
64143;DHT22;50437;51.970;5.904;2022-09-16T13:22:25;17.90;50.10
64143;DHT22;50437;51.970;5.904;2022-09-16T13:27:38;17.70;51.70
64143;DHT22;50437;51.970;5.904;2022-09-16T13:30:11;17.90;51.70
64143;DHT22;50437;51.970;5.904;2022-09-16T13:32:38;17.90;51.60
64143;DHT22;50437;51.970;5.904;2022-09-16T13:37:33;17.70;51.80
64143;DHT22;50437;51.970;5.904;2022-09-16T13:40:15;17.80;53.50
64143;DHT22;50437;51.970;5.904;2022-09-16T13:42:42;18.10;52.00
64143;DHT22;50437;51.970;5.904;2022-09-16T13:47:53;18.00;53.60
64143;DHT22;50437;51.970;5.904;2022-09-16T13:50:19;18.00;52.50
64143;DHT22;50437;51.970;5.904;2022-09-16T13:52:47;18.00;52.00
64143;DHT22;50437;51.970;5.904;2022-09-16T13:55:18;18.20;51.50
64143;DHT22;50437;51.970;5.904;2022-09-16T13:57:49;18.00;49.20
64143;DHT22;50437;51.970;5.904;2022-09-16T14:00:21;17.30;49.00
64143;DHT22;50437;51.970;5.904;2022-09-16T14:10:29;16.70;51.50
64143;DHT22;50437;51.970;5.904;2022-09-16T14:13:31;16.60;52.40
64143;DHT22;50437;51.970;5.904;2022-09-16T14:15:52;16.40;56.20
64143;DHT22;50437;51.970;5.904;2022-09-16T14:18:23;16.20;59.00
64143;DHT22;50437;51.970;5.904;2022-09-16T14:20:51;16.40;59.50
64143;DHT22;50437;51.970;5.904;2022-09-16T14:23:19;16.50;59.20
64143;DHT22;50437;51.970;5.904;2022-09-16T14:25:45;16.50;58.70
64143;DHT22;50437;51.970;5.904;2022-09-16T14:30:46;16.40;59.50
64143;DHT22;50437;51.970;5.904;2022-09-16T14:33:12;16.70;59.70
64143;DHT22;50437;51.970;5.904;2022-09-16T14:35:38;16.90;57.70
64143;DHT22;50437;51.970;5.904;2022-09-16T14:38:04;17.00;56.80
64143;DHT22;50437;51.970;5.904;2022-09-16T14:40:31;16.90;57.50
64143;DHT22;50437;51.970;5.904;2022-09-16T14:43:01;17.00;56.60
64143;DHT22;50437;51.970;5.904;2022-09-16T14:45:29;17.20;57.00
64143;DHT22;50437;51.970;5.904;2022-09-16T14:47:56;17.90;56.90
64143;DHT22;50437;51.970;5.904;2022-09-16T14:50:27;18.10;53.80
64143;DHT22;50437;51.970;5.904;2022-09-16T14:52:56;17.90;51.20
64143;DHT22;50437;51.970;5.904;2022-09-16T14:55:24;18.00;51.10
64143;DHT22;50437;51.970;5.904;2022-09-16T14:57:50;17.60;59.40
64143;DHT22;50437;51.970;5.904;2022-09-16T15:00:16;17.10;62.30
64143;DHT22;50437;51.970;5.904;2022-09-16T15:07:36;16.10;63.60
64143;DHT22;50437;51.970;5.904;2022-09-16T15:10:05;16.10;69.10
64143;DHT22;50437;51.970;5.904;2022-09-16T15:12:34;15.90;66.70
64143;DHT22;50437;51.970;5.904;2022-09-16T15:15:35;15.80;66.70
64143;DHT22;50437;51.970;5.904;2022-09-16T15:17:59;15.90;68.80
64143;DHT22;50437;51.970;5.904;2022-09-16T15:20:26;16.00;69.80
64143;DHT22;50437;51.970;5.904;2022-09-16T15:22:53;16.30;70.20
64143;DHT22;50437;51.970;5.904;2022-09-16T15:25:19;16.60;69.80
64143;DHT22;50437;51.970;5.904;2022-09-16T15:27:46;16.80;68.90
64143;DHT22;50437;51.970;5.904;2022-09-16T15:30:22;16.80;64.20
64143;DHT22;50437;51.970;5.904;2022-09-16T15:32:48;16.60;65.00
64143;DHT22;50437;51.970;5.904;2022-09-16T15:35:19;16.50;64.80
64143;DHT22;50437;51.970;5.904;2022-09-16T15:37:46;16.60;65.40
64143;DHT22;50437;51.970;5.904;2022-09-16T15:42:44;16.50;62.60
64143;DHT22;50437;51.970;5.904;2022-09-16T15:45:15;16.60;63.50
64143;DHT22;50437;51.970;5.904;2022-09-16T15:47:50;16.70;62.70
64143;DHT22;50437;51.970;5.904;2022-09-16T15:50:18;16.80;61.50
64143;DHT22;50437;51.970;5.904;2022-09-16T15:53:06;16.60;61.10
64143;DHT22;50437;51.970;5.904;2022-09-16T15:55:35;16.50;60.30
64143;DHT22;50437;51.970;5.904;2022-09-16T15:58:04;16.40;61.50
64143;DHT22;50437;51.970;5.904;2022-09-16T16:03:18;16.30;60.10
64143;DHT22;50437;51.970;5.904;2022-09-16T16:05:50;16.30;58.00
64143;DHT22;50437;51.970;5.904;2022-09-16T16:11:09;16.30;57.10
64143;DHT22;50437;51.970;5.904;2022-09-16T16:13:35;16.40;54.50
64143;DHT22;50437;51.970;5.904;2022-09-16T16:16:01;16.40;55.80
64143;DHT22;50437;51.970;5.904;2022-09-16T16:18:29;16.30;54.80
64143;DHT22;50437;51.970;5.904;2022-09-16T16:20:57;16.30;53.50
64143;DHT22;50437;51.970;5.904;2022-09-16T16:23:23;16.30;54.50
64143;DHT22;50437;51.970;5.904;2022-09-16T16:25:49;16.20;54.30
64143;DHT22;50437;51.970;5.904;2022-09-16T16:28:15;16.00;55.50
64143;DHT22;50437;51.970;5.904;2022-09-16T16:30:41;16.00;56.00
64143;DHT22;50437;51.970;5.904;2022-09-16T16:33:07;15.90;56.10
64143;DHT22;50437;51.970;5.904;2022-09-16T16:35:33;15.90;56.50
64143;DHT22;50437;51.970;5.904;2022-09-16T16:37:59;16.20;58.40
64143;DHT22;50437;51.970;5.904;2022-09-16T16:40:25;16.20;55.40
64143;DHT22;50437;51.970;5.904;2022-09-16T16:42:51;16.20;53.40
64143;DHT22;50437;51.970;5.904;2022-09-16T16:45:17;16.10;55.00
64143;DHT22;50437;51.970;5.904;2022-09-16T16:47:46;16.10;55.60
64143;DHT22;50437;51.970;5.904;2022-09-16T16:50:12;16.00;56.60
64143;DHT22;50437;51.970;5.904;2022-09-16T16:52:39;15.90;57.30
64143;DHT22;50437;51.970;5.904;2022-09-16T16:55:05;15.80;56.60
64143;DHT22;50437;51.970;5.904;2022-09-16T16:57:31;15.80;58.00
64143;DHT22;50437;51.970;5.904;2022-09-16T16:59:57;15.80;57.30
64143;DHT22;50437;51.970;5.904;2022-09-16T17:02:23;15.80;58.20
64143;DHT22;50437;51.970;5.904;2022-09-16T17:04:49;15.70;58.00
64143;DHT22;50437;51.970;5.904;2022-09-16T17:07:15;15.70;58.50
64143;DHT22;50437;51.970;5.904;2022-09-16T17:09:41;15.50;57.70
64143;DHT22;50437;51.970;5.904;2022-09-16T17:12:07;15.40;59.50
64143;DHT22;50437;51.970;5.904;2022-09-16T17:14:34;15.30;59.50
64143;DHT22;50437;51.970;5.904;2022-09-16T17:17:00;15.20;59.00
64143;DHT22;50437;51.970;5.904;2022-09-16T17:19:27;15.10;60.00
64143;DHT22;50437;51.970;5.904;2022-09-16T17:21:53;15.10;60.60
64143;DHT22;50437;51.970;5.904;2022-09-16T17:24:20;15.10;61.90
64143;DHT22;50437;51.970;5.904;2022-09-16T17:26:46;14.80;63.30
64143;DHT22;50437;51.970;5.904;2022-09-16T17:29:12;14.30;62.60
64143;DHT22;50437;51.970;5.904;2022-09-16T17:31:39;14.00;65.40
64143;DHT22;50437;51.970;5.904;2022-09-16T17:34:06;13.80;66.80
64143;DHT22;50437;51.970;5.904;2022-09-16T17:36:34;13.70;67.40
64143;DHT22;50437;51.970;5.904;2022-09-16T17:39:07;13.70;67.70
64143;DHT22;50437;51.970;5.904;2022-09-16T17:41:34;13.60;67.40
64143;DHT22;50437;51.970;5.904;2022-09-16T17:44:04;13.50;68.30
64143;DHT22;50437;51.970;5.904;2022-09-16T17:46:31;13.40;73.10
64143;DHT22;50437;51.970;5.904;2022-09-16T17:48:58;13.50;74.00
64143;DHT22;50437;51.970;5.904;2022-09-16T17:51:24;13.50;77.10
64143;DHT22;50437;51.970;5.904;2022-09-16T17:53:50;13.50;74.40
64143;DHT22;50437;51.970;5.904;2022-09-16T17:56:16;13.50;75.00
64143;DHT22;50437;51.970;5.904;2022-09-16T17:58:43;13.50;76.00
64143;DHT22;50437;51.970;5.904;2022-09-16T18:01:11;13.40;76.50
64143;DHT22;50437;51.970;5.904;2022-09-16T18:03:37;13.30;77.10
64143;DHT22;50437;51.970;5.904;2022-09-16T18:06:05;13.30;77.70
64143;DHT22;50437;51.970;5.904;2022-09-16T18:08:31;13.30;78.00
64143;DHT22;50437;51.970;5.904;2022-09-16T18:10:58;13.30;79.30
64143;DHT22;50437;51.970;5.904;2022-09-16T18:13:24;13.20;78.50